sensor_id;sensor_type;location;lat;lon;timestamp;P1;durP1;ratioP1;P2;durP2;ratioP2
51374;SDS011;37465;52.738;4.752;2022-09-09T00:02:13;8.63;;;5.93;;
51374;SDS011;37465;52.738;4.752;2022-09-09T00:04:48;7.28;;;5.43;;
51374;SDS011;37465;52.738;4.752;2022-09-09T00:07:24;7.93;;;5.82;;
51374;SDS011;37465;52.738;4.752;2022-09-09T00:09:58;7.63;;;6.00;;
51374;SDS011;37465;52.738;4.752;2022-09-09T00:12:32;8.23;;;6.00;;
51374;SDS011;37465;52.738;4.752;2022-09-09T00:15:02;7.95;;;5.97;;
51374;SDS011;37465;52.738;4.752;2022-09-09T00:17:36;7.70;;;5.82;;
51374;SDS011;37465;52.738;4.752;2022-09-09T00:20:10;7.65;;;5.93;;
51374;SDS011;37465;52.738;4.752;2022-09-09T00:22:40;7.88;;;6.00;;
51374;SDS011;37465;52.738;4.752;2022-09-09T00:25:12;7.43;;;6.32;;
51374;SDS011;37465;52.738;4.752;2022-09-09T00:27:45;7.28;;;6.13;;
51374;SDS011;37465;52.738;4.752;2022-09-09T00:30:14;8.73;;;6.55;;
51374;SDS011;37465;52.738;4.752;2022-09-09T00:32:47;7.47;;;6.05;;
51374;SDS011;37465;52.738;4.752;2022-09-09T00:35:16;8.25;;;6.47;;
51374;SDS011;37465;52.738;4.752;2022-09-09T00:37:46;9.30;;;6.68;;
51374;SDS011;37465;52.738;4.752;2022-09-09T00:40:18;8.15;;;6.40;;
51374;SDS011;37465;52.738;4.752;2022-09-09T00:42:51;8.00;;;6.50;;
51374;SDS011;37465;52.738;4.752;2022-09-09T00:45:28;7.30;;;6.60;;
51374;SDS011;37465;52.738;4.752;2022-09-09T00:48:08;6.85;;;6.15;;
51374;SDS011;37465;52.738;4.752;2022-09-09T00:50:43;8.10;;;6.82;;
51374;SDS011;37465;52.738;4.752;2022-09-09T00:53:17;8.75;;;6.82;;
51374;SDS011;37465;52.738;4.752;2022-09-09T00:55:52;9.80;;;6.65;;
51374;SDS011;37465;52.738;4.752;2022-09-09T00:58:22;10.00;;;6.78;;
51374;SDS011;37465;52.738;4.752;2022-09-09T01:00:51;9.37;;;7.00;;
51374;SDS011;37465;52.738;4.752;2022-09-09T01:03:25;9.73;;;7.35;;
51374;SDS011;37465;52.738;4.752;2022-09-09T01:06:00;8.88;;;7.00;;
51374;SDS011;37465;52.738;4.752;2022-09-09T01:08:36;10.25;;;7.15;;
51374;SDS011;37465;52.738;4.752;2022-09-09T01:11:10;8.80;;;7.30;;
51374;SDS011;37465;52.738;4.752;2022-09-09T01:13:43;9.32;;;7.05;;
51374;SDS011;37465;52.738;4.752;2022-09-09T01:16:13;9.55;;;7.03;;
51374;SDS011;37465;52.738;4.752;2022-09-09T01:18:43;9.65;;;7.30;;
51374;SDS011;37465;52.738;4.752;2022-09-09T01:21:14;7.75;;;6.90;;
51374;SDS011;37465;52.738;4.752;2022-09-09T01:23:54;9.40;;;7.45;;
51374;SDS011;37465;52.738;4.752;2022-09-09T01:26:33;9.63;;;7.45;;
51374;SDS011;37465;52.738;4.752;2022-09-09T01:29:01;9.07;;;7.67;;
51374;SDS011;37465;52.738;4.752;2022-09-09T01:31:30;9.75;;;7.63;;
51374;SDS011;37465;52.738;4.752;2022-09-09T01:33:59;8.63;;;7.82;;
51374;SDS011;37465;52.738;4.752;2022-09-09T01:36:29;11.60;;;7.85;;
51374;SDS011;37465;52.738;4.752;2022-09-09T01:38:59;9.60;;;8.60;;
51374;SDS011;37465;52.738;4.752;2022-09-09T01:41:27;9.82;;;8.30;;
51374;SDS011;37465;52.738;4.752;2022-09-09T01:43:56;9.00;;;8.07;;
51374;SDS011;37465;52.738;4.752;2022-09-09T01:46:24;11.23;;;9.02;;
51374;SDS011;37465;52.738;4.752;2022-09-09T01:48:52;10.67;;;8.63;;
51374;SDS011;37465;52.738;4.752;2022-09-09T01:51:20;9.82;;;8.82;;
51374;SDS011;37465;52.738;4.752;2022-09-09T01:53:48;9.82;;;8.77;;
51374;SDS011;37465;52.738;4.752;2022-09-09T01:56:19;11.30;;;8.70;;
51374;SDS011;37465;52.738;4.752;2022-09-09T01:58:55;11.07;;;9.27;;
51374;SDS011;37465;52.738;4.752;2022-09-09T02:01:33;11.07;;;8.73;;
51374;SDS011;37465;52.738;4.752;2022-09-09T02:04:08;12.50;;;9.05;;
51374;SDS011;37465;52.738;4.752;2022-09-09T02:06:43;12.13;;;9.57;;
51374;SDS011;37465;52.738;4.752;2022-09-09T02:09:13;10.30;;;8.50;;
51374;SDS011;37465;52.738;4.752;2022-09-09T02:11:42;11.55;;;8.60;;
51374;SDS011;37465;52.738;4.752;2022-09-09T02:14:15;10.73;;;9.25;;
51374;SDS011;37465;52.738;4.752;2022-09-09T02:16:47;9.60;;;8.63;;
51374;SDS011;37465;52.738;4.752;2022-09-09T02:19:18;9.90;;;8.88;;
51374;SDS011;37465;52.738;4.752;2022-09-09T02:21:52;10.00;;;8.93;;
51374;SDS011;37465;52.738;4.752;2022-09-09T02:24:21;10.32;;;8.98;;
51374;SDS011;37465;52.738;4.752;2022-09-09T02:26:49;11.00;;;8.88;;
51374;SDS011;37465;52.738;4.752;2022-09-09T02:29:22;10.43;;;9.05;;
51374;SDS011;37465;52.738;4.752;2022-09-09T02:31:51;11.10;;;9.52;;
51374;SDS011;37465;52.738;4.752;2022-09-09T02:34:21;10.60;;;8.75;;
51374;SDS011;37465;52.738;4.752;2022-09-09T02:36:50;13.52;;;9.38;;
51374;SDS011;37465;52.738;4.752;2022-09-09T02:39:19;12.30;;;9.80;;
51374;SDS011;37465;52.738;4.752;2022-09-09T02:41:47;11.75;;;9.60;;
51374;SDS011;37465;52.738;4.752;2022-09-09T02:44:15;11.80;;;9.85;;
51374;SDS011;37465;52.738;4.752;2022-09-09T02:46:50;12.82;;;10.25;;
51374;SDS011;37465;52.738;4.752;2022-09-09T02:49:27;12.20;;;10.68;;
51374;SDS011;37465;52.738;4.752;2022-09-09T02:51:58;12.32;;;10.32;;
51374;SDS011;37465;52.738;4.752;2022-09-09T02:54:28;12.13;;;10.77;;
51374;SDS011;37465;52.738;4.752;2022-09-09T02:56:59;13.20;;;11.82;;
51374;SDS011;37465;52.738;4.752;2022-09-09T02:59:31;12.70;;;11.15;;
51374;SDS011;37465;52.738;4.752;2022-09-09T03:02:00;15.20;;;11.85;;
51374;SDS011;37465;52.738;4.752;2022-09-09T03:04:28;16.65;;;12.93;;
51374;SDS011;37465;52.738;4.752;2022-09-09T03:06:57;14.82;;;12.52;;
51374;SDS011;37465;52.738;4.752;2022-09-09T03:09:24;16.10;;;12.55;;
51374;SDS011;37465;52.738;4.752;2022-09-09T03:11:52;14.15;;;11.93;;
51374;SDS011;37465;52.738;4.752;2022-09-09T03:14:21;13.97;;;12.47;;
51374;SDS011;37465;52.738;4.752;2022-09-09T03:16:50;14.95;;;12.23;;
51374;SDS011;37465;52.738;4.752;2022-09-09T03:19:19;15.52;;;12.73;;
51374;SDS011;37465;52.738;4.752;2022-09-09T03:21:47;16.90;;;14.18;;
51374;SDS011;37465;52.738;4.752;2022-09-09T03:24:15;16.30;;;14.60;;
51374;SDS011;37465;52.738;4.752;2022-09-09T03:26:43;17.80;;;15.90;;
51374;SDS011;37465;52.738;4.752;2022-09-09T03:29:11;20.63;;;17.30;;
51374;SDS011;37465;52.738;4.752;2022-09-09T03:31:39;19.95;;;17.75;;
51374;SDS011;37465;52.738;4.752;2022-09-09T03:34:07;23.25;;;19.95;;
51374;SDS011;37465;52.738;4.752;2022-09-09T03:36:35;22.47;;;19.63;;
51374;SDS011;37465;52.738;4.752;2022-09-09T03:39:03;24.13;;;20.35;;
51374;SDS011;37465;52.738;4.752;2022-09-09T03:41:31;24.05;;;21.00;;
51374;SDS011;37465;52.738;4.752;2022-09-09T03:43:58;25.15;;;20.50;;
51374;SDS011;37465;52.738;4.752;2022-09-09T03:46:26;22.67;;;20.13;;
51374;SDS011;37465;52.738;4.752;2022-09-09T03:48:53;24.63;;;20.67;;
51374;SDS011;37465;52.738;4.752;2022-09-09T03:51:21;22.87;;;20.33;;
51374;SDS011;37465;52.738;4.752;2022-09-09T03:53:50;25.83;;;20.95;;
51374;SDS011;37465;52.738;4.752;2022-09-09T03:56:18;23.60;;;20.23;;
51374;SDS011;37465;52.738;4.752;2022-09-09T03:58:47;23.50;;;19.98;;
51374;SDS011;37465;52.738;4.752;2022-09-09T04:01:15;23.00;;;20.60;;
51374;SDS011;37465;52.738;4.752;2022-09-09T04:03:44;23.02;;;20.23;;
51374;SDS011;37465;52.738;4.752;2022-09-09T04:06:12;23.77;;;20.75;;
51374;SDS011;37465;52.738;4.752;2022-09-09T04:08:41;23.73;;;21.05;;
51374;SDS011;37465;52.738;4.752;2022-09-09T04:11:09;23.17;;;20.77;;
51374;SDS011;37465;52.738;4.752;2022-09-09T04:13:37;23.15;;;20.67;;
51374;SDS011;37465;52.738;4.752;2022-09-09T04:16:06;22.67;;;20.23;;
51374;SDS011;37465;52.738;4.752;2022-09-09T04:18:34;21.87;;;19.53;;
51374;SDS011;37465;52.738;4.752;2022-09-09T04:21:02;21.67;;;19.48;;
51374;SDS011;37465;52.738;4.752;2022-09-09T04:23:32;22.45;;;19.83;;
51374;SDS011;37465;52.738;4.752;2022-09-09T04:26:01;22.10;;;19.80;;
51374;SDS011;37465;52.738;4.752;2022-09-09T04:28:31;21.75;;;19.48;;
51374;SDS011;37465;52.738;4.752;2022-09-09T04:31:03;21.58;;;19.02;;
51374;SDS011;37465;52.738;4.752;2022-09-09T04:33:31;22.05;;;18.92;;
51374;SDS011;37465;52.738;4.752;2022-09-09T04:36:05;20.70;;;18.50;;
51374;SDS011;37465;52.738;4.752;2022-09-09T04:38:33;20.80;;;18.38;;
51374;SDS011;37465;52.738;4.752;2022-09-09T04:41:01;19.55;;;17.55;;
51374;SDS011;37465;52.738;4.752;2022-09-09T04:43:28;19.33;;;16.75;;
51374;SDS011;37465;52.738;4.752;2022-09-09T04:45:58;18.40;;;16.50;;
51374;SDS011;37465;52.738;4.752;2022-09-09T04:48:26;18.75;;;16.90;;
51374;SDS011;37465;52.738;4.752;2022-09-09T04:50:54;18.52;;;16.48;;
51374;SDS011;37465;52.738;4.752;2022-09-09T04:53:22;17.33;;;15.60;;
51374;SDS011;37465;52.738;4.752;2022-09-09T04:55:51;17.38;;;15.68;;
51374;SDS011;37465;52.738;4.752;2022-09-09T04:58:19;17.50;;;15.23;;
51374;SDS011;37465;52.738;4.752;2022-09-09T05:00:48;16.55;;;14.85;;
51374;SDS011;37465;52.738;4.752;2022-09-09T05:03:19;17.80;;;15.27;;
51374;SDS011;37465;52.738;4.752;2022-09-09T05:05:46;17.08;;;15.25;;
51374;SDS011;37465;52.738;4.752;2022-09-09T05:08:14;18.00;;;15.90;;
51374;SDS011;37465;52.738;4.752;2022-09-09T05:10:41;17.77;;;15.43;;
51374;SDS011;37465;52.738;4.752;2022-09-09T05:13:11;16.55;;;14.80;;
51374;SDS011;37465;52.738;4.752;2022-09-09T05:15:38;15.80;;;14.20;;
51374;SDS011;37465;52.738;4.752;2022-09-09T05:18:07;16.55;;;14.70;;
51374;SDS011;37465;52.738;4.752;2022-09-09T05:20:36;15.15;;;13.50;;
51374;SDS011;37465;52.738;4.752;2022-09-09T05:23:03;16.83;;;13.90;;
51374;SDS011;37465;52.738;4.752;2022-09-09T05:25:31;15.10;;;13.20;;
51374;SDS011;37465;52.738;4.752;2022-09-09T05:27:59;14.82;;;13.23;;
51374;SDS011;37465;52.738;4.752;2022-09-09T05:30:27;16.45;;;14.02;;
51374;SDS011;37465;52.738;4.752;2022-09-09T05:32:55;14.88;;;13.27;;
51374;SDS011;37465;52.738;4.752;2022-09-09T05:35:23;15.30;;;13.25;;
51374;SDS011;37465;52.738;4.752;2022-09-09T05:37:52;15.02;;;12.88;;
51374;SDS011;37465;52.738;4.752;2022-09-09T05:40:19;16.60;;;13.38;;
51374;SDS011;37465;52.738;4.752;2022-09-09T05:42:47;15.57;;;13.13;;
51374;SDS011;37465;52.738;4.752;2022-09-09T05:45:15;14.02;;;11.68;;
51374;SDS011;37465;52.738;4.752;2022-09-09T05:47:42;12.77;;;11.35;;
51374;SDS011;37465;52.738;4.752;2022-09-09T05:50:10;13.15;;;11.73;;
51374;SDS011;37465;52.738;4.752;2022-09-09T05:52:39;12.57;;;11.27;;
51374;SDS011;37465;52.738;4.752;2022-09-09T05:55:09;14.13;;;11.63;;
51374;SDS011;37465;52.738;4.752;2022-09-09T05:57:36;13.27;;;11.05;;
51374;SDS011;37465;52.738;4.752;2022-09-09T06:00:05;12.07;;;10.77;;
51374;SDS011;37465;52.738;4.752;2022-09-09T06:02:34;12.40;;;10.20;;
51374;SDS011;37465;52.738;4.752;2022-09-09T06:05:04;11.50;;;10.25;;
51374;SDS011;37465;52.738;4.752;2022-09-09T06:07:34;11.43;;;9.40;;
51374;SDS011;37465;52.738;4.752;2022-09-09T06:10:02;10.73;;;8.98;;
51374;SDS011;37465;52.738;4.752;2022-09-09T06:12:31;9.80;;;8.05;;
51374;SDS011;37465;52.738;4.752;2022-09-09T06:14:59;10.70;;;8.10;;
51374;SDS011;37465;52.738;4.752;2022-09-09T06:17:26;9.32;;;7.40;;
51374;SDS011;37465;52.738;4.752;2022-09-09T06:19:54;9.52;;;7.55;;
51374;SDS011;37465;52.738;4.752;2022-09-09T06:22:21;9.43;;;7.53;;
51374;SDS011;37465;52.738;4.752;2022-09-09T06:24:49;10.10;;;7.40;;
51374;SDS011;37465;52.738;4.752;2022-09-09T06:27:17;7.85;;;6.75;;
51374;SDS011;37465;52.738;4.752;2022-09-09T06:29:46;9.75;;;7.00;;
51374;SDS011;37465;52.738;4.752;2022-09-09T06:32:14;9.25;;;6.18;;
51374;SDS011;37465;52.738;4.752;2022-09-09T06:34:41;8.95;;;6.20;;
51374;SDS011;37465;52.738;4.752;2022-09-09T06:37:09;8.35;;;5.63;;
51374;SDS011;37465;52.738;4.752;2022-09-09T06:39:37;7.90;;;5.73;;
51374;SDS011;37465;52.738;4.752;2022-09-09T06:42:05;6.97;;;5.22;;
51374;SDS011;37465;52.738;4.752;2022-09-09T06:44:34;7.32;;;4.78;;
51374;SDS011;37465;52.738;4.752;2022-09-09T06:47:04;7.10;;;4.80;;
51374;SDS011;37465;52.738;4.752;2022-09-09T06:49:31;6.55;;;4.68;;
51374;SDS011;37465;52.738;4.752;2022-09-09T06:51:59;6.40;;;4.05;;
51374;SDS011;37465;52.738;4.752;2022-09-09T06:54:26;6.93;;;4.38;;
51374;SDS011;37465;52.738;4.752;2022-09-09T06:56:54;6.97;;;4.28;;
51374;SDS011;37465;52.738;4.752;2022-09-09T06:59:22;5.28;;;3.95;;
51374;SDS011;37465;52.738;4.752;2022-09-09T07:01:49;5.55;;;3.80;;
51374;SDS011;37465;52.738;4.752;2022-09-09T07:04:22;6.38;;;3.80;;
51374;SDS011;37465;52.738;4.752;2022-09-09T07:06:51;4.85;;;3.25;;
51374;SDS011;37465;52.738;4.752;2022-09-09T07:09:18;4.75;;;3.13;;
51374;SDS011;37465;52.738;4.752;2022-09-09T07:11:47;6.22;;;3.67;;
51374;SDS011;37465;52.738;4.752;2022-09-09T07:14:15;5.43;;;3.50;;
51374;SDS011;37465;52.738;4.752;2022-09-09T07:16:43;6.78;;;4.05;;
51374;SDS011;37465;52.738;4.752;2022-09-09T07:19:12;5.55;;;3.65;;
51374;SDS011;37465;52.738;4.752;2022-09-09T07:21:42;9.20;;;4.53;;
51374;SDS011;37465;52.738;4.752;2022-09-09T07:24:10;7.88;;;4.05;;
51374;SDS011;37465;52.738;4.752;2022-09-09T07:26:39;7.75;;;4.30;;
51374;SDS011;37465;52.738;4.752;2022-09-09T07:29:06;6.73;;;4.33;;
51374;SDS011;37465;52.738;4.752;2022-09-09T07:31:34;8.07;;;4.07;;
51374;SDS011;37465;52.738;4.752;2022-09-09T07:34:04;6.53;;;4.40;;
51374;SDS011;37465;52.738;4.752;2022-09-09T07:36:32;8.70;;;5.30;;
51374;SDS011;37465;52.738;4.752;2022-09-09T07:39:02;9.35;;;5.10;;
51374;SDS011;37465;52.738;4.752;2022-09-09T07:41:32;7.07;;;4.97;;
51374;SDS011;37465;52.738;4.752;2022-09-09T07:44:03;6.80;;;4.78;;
51374;SDS011;37465;52.738;4.752;2022-09-09T07:46:32;7.30;;;4.80;;
51374;SDS011;37465;52.738;4.752;2022-09-09T07:49:01;7.35;;;4.80;;
51374;SDS011;37465;52.738;4.752;2022-09-09T07:51:30;7.88;;;4.90;;
51374;SDS011;37465;52.738;4.752;2022-09-09T07:53:59;7.07;;;4.57;;
51374;SDS011;37465;52.738;4.752;2022-09-09T07:56:29;7.90;;;5.60;;
51374;SDS011;37465;52.738;4.752;2022-09-09T07:58:59;7.77;;;5.23;;
51374;SDS011;37465;52.738;4.752;2022-09-09T08:01:28;7.93;;;5.47;;
51374;SDS011;37465;52.738;4.752;2022-09-09T08:03:58;7.87;;;5.23;;
51374;SDS011;37465;52.738;4.752;2022-09-09T08:06:27;7.30;;;5.55;;
51374;SDS011;37465;52.738;4.752;2022-09-09T08:08:55;9.52;;;5.57;;
51374;SDS011;37465;52.738;4.752;2022-09-09T08:11:23;7.60;;;5.20;;
51374;SDS011;37465;52.738;4.752;2022-09-09T08:13:53;8.30;;;5.37;;
51374;SDS011;37465;52.738;4.752;2022-09-09T08:16:28;6.68;;;4.93;;
51374;SDS011;37465;52.738;4.752;2022-09-09T08:18:57;9.93;;;5.57;;
51374;SDS011;37465;52.738;4.752;2022-09-09T08:21:26;6.80;;;5.07;;
51374;SDS011;37465;52.738;4.752;2022-09-09T08:23:55;7.40;;;5.53;;
51374;SDS011;37465;52.738;4.752;2022-09-09T08:26:24;7.57;;;5.43;;
51374;SDS011;37465;52.738;4.752;2022-09-09T08:28:55;6.22;;;4.70;;
51374;SDS011;37465;52.738;4.752;2022-09-09T08:31:25;6.57;;;4.80;;
51374;SDS011;37465;52.738;4.752;2022-09-09T08:33:55;8.07;;;4.95;;
51374;SDS011;37465;52.738;4.752;2022-09-09T08:36:26;6.40;;;5.13;;
51374;SDS011;37465;52.738;4.752;2022-09-09T08:38:55;8.50;;;5.00;;
51374;SDS011;37465;52.738;4.752;2022-09-09T08:41:30;7.17;;;4.90;;
51374;SDS011;37465;52.738;4.752;2022-09-09T08:44:06;7.80;;;4.93;;
51374;SDS011;37465;52.738;4.752;2022-09-09T08:46:38;6.33;;;4.50;;
51374;SDS011;37465;52.738;4.752;2022-09-09T08:49:16;7.05;;;4.50;;
51374;SDS011;37465;52.738;4.752;2022-09-09T08:51:52;5.90;;;4.00;;
51374;SDS011;37465;52.738;4.752;2022-09-09T08:54:21;7.13;;;4.00;;
51374;SDS011;37465;52.738;4.752;2022-09-09T08:57:09;8.45;;;4.43;;
51374;SDS011;37465;52.738;4.752;2022-09-09T08:59:42;7.22;;;4.10;;
51374;SDS011;37465;52.738;4.752;2022-09-09T09:02:13;6.20;;;4.00;;
51374;SDS011;37465;52.738;4.752;2022-09-09T09:04:46;7.07;;;3.97;;
51374;SDS011;37465;52.738;4.752;2022-09-09T09:07:36;7.25;;;4.20;;
51374;SDS011;37465;52.738;4.752;2022-09-09T09:10:12;7.88;;;4.05;;
51374;SDS011;37465;52.738;4.752;2022-09-09T09:13:07;6.43;;;4.18;;
51374;SDS011;37465;52.738;4.752;2022-09-09T09:15:37;8.25;;;4.13;;
51374;SDS011;37465;52.738;4.752;2022-09-09T09:18:07;5.90;;;4.25;;
51374;SDS011;37465;52.738;4.752;2022-09-09T09:20:38;7.03;;;4.10;;
51374;SDS011;37465;52.738;4.752;2022-09-09T09:23:12;7.47;;;4.15;;
51374;SDS011;37465;52.738;4.752;2022-09-09T09:25:44;7.40;;;4.10;;
51374;SDS011;37465;52.738;4.752;2022-09-09T09:28:12;7.60;;;4.35;;
51374;SDS011;37465;52.738;4.752;2022-09-09T09:30:47;7.75;;;4.10;;
51374;SDS011;37465;52.738;4.752;2022-09-09T09:33:18;6.57;;;3.40;;
51374;SDS011;37465;52.738;4.752;2022-09-09T09:35:48;8.15;;;4.05;;
51374;SDS011;37465;52.738;4.752;2022-09-09T09:38:17;7.00;;;4.07;;
51374;SDS011;37465;52.738;4.752;2022-09-09T09:41:06;7.60;;;4.00;;
51374;SDS011;37465;52.738;4.752;2022-09-09T09:43:36;4.97;;;3.45;;
51374;SDS011;37465;52.738;4.752;2022-09-09T09:46:16;6.97;;;3.70;;
51374;SDS011;37465;52.738;4.752;2022-09-09T09:48:55;5.53;;;3.50;;
51374;SDS011;37465;52.738;4.752;2022-09-09T09:51:24;6.53;;;3.78;;
51374;SDS011;37465;52.738;4.752;2022-09-09T09:53:52;7.50;;;3.85;;
51374;SDS011;37465;52.738;4.752;2022-09-09T09:56:25;6.45;;;3.67;;
51374;SDS011;37465;52.738;4.752;2022-09-09T09:58:54;5.97;;;3.50;;
51374;SDS011;37465;52.738;4.752;2022-09-09T10:01:25;5.25;;;3.33;;
51374;SDS011;37465;52.738;4.752;2022-09-09T10:03:54;7.00;;;3.67;;
51374;SDS011;37465;52.738;4.752;2022-09-09T10:06:30;6.55;;;3.60;;
51374;SDS011;37465;52.738;4.752;2022-09-09T10:08:59;5.80;;;3.70;;
51374;SDS011;37465;52.738;4.752;2022-09-09T10:11:35;5.68;;;3.08;;
51374;SDS011;37465;52.738;4.752;2022-09-09T10:14:12;6.18;;;3.10;;
51374;SDS011;37465;52.738;4.752;2022-09-09T10:16:48;5.60;;;3.50;;
51374;SDS011;37465;52.738;4.752;2022-09-09T10:19:28;6.82;;;3.30;;
51374;SDS011;37465;52.738;4.752;2022-09-09T10:22:02;8.52;;;4.00;;
51374;SDS011;37465;52.738;4.752;2022-09-09T10:24:47;7.43;;;3.25;;
51374;SDS011;37465;52.738;4.752;2022-09-09T10:27:41;7.05;;;3.35;;
51374;SDS011;37465;52.738;4.752;2022-09-09T10:30:21;7.97;;;3.30;;
51374;SDS011;37465;52.738;4.752;2022-09-09T10:32:54;5.23;;;3.23;;
51374;SDS011;37465;52.738;4.752;2022-09-09T10:35:29;5.15;;;3.20;;
51374;SDS011;37465;52.738;4.752;2022-09-09T10:38:03;6.27;;;2.80;;
51374;SDS011;37465;52.738;4.752;2022-09-09T10:40:38;5.03;;;3.13;;
51374;SDS011;37465;52.738;4.752;2022-09-09T10:43:13;6.43;;;2.95;;
51374;SDS011;37465;52.738;4.752;2022-09-09T10:45:52;6.18;;;2.80;;
51374;SDS011;37465;52.738;4.752;2022-09-09T10:48:28;5.85;;;3.10;;
51374;SDS011;37465;52.738;4.752;2022-09-09T10:51:02;6.32;;;2.53;;
51374;SDS011;37465;52.738;4.752;2022-09-09T10:53:41;5.75;;;3.13;;
51374;SDS011;37465;52.738;4.752;2022-09-09T10:56:15;6.60;;;2.85;;
51374;SDS011;37465;52.738;4.752;2022-09-09T10:58:47;4.45;;;2.45;;
51374;SDS011;37465;52.738;4.752;2022-09-09T11:01:17;5.18;;;2.35;;
51374;SDS011;37465;52.738;4.752;2022-09-09T11:03:49;4.78;;;2.30;;
51374;SDS011;37465;52.738;4.752;2022-09-09T11:06:22;4.43;;;2.25;;
51374;SDS011;37465;52.738;4.752;2022-09-09T11:08:55;5.40;;;2.20;;
51374;SDS011;37465;52.738;4.752;2022-09-09T11:11:26;6.05;;;2.53;;
51374;SDS011;37465;52.738;4.752;2022-09-09T11:13:57;5.38;;;2.25;;
51374;SDS011;37465;52.738;4.752;2022-09-09T11:16:28;6.10;;;2.58;;
51374;SDS011;37465;52.738;4.752;2022-09-09T11:18:59;5.07;;;2.55;;
51374;SDS011;37465;52.738;4.752;2022-09-09T11:21:31;6.20;;;2.63;;
51374;SDS011;37465;52.738;4.752;2022-09-09T11:24:02;5.85;;;2.67;;
51374;SDS011;37465;52.738;4.752;2022-09-09T11:26:36;4.57;;;2.45;;
51374;SDS011;37465;52.738;4.752;2022-09-09T11:29:14;3.83;;;2.13;;
51374;SDS011;37465;52.738;4.752;2022-09-09T11:31:58;5.28;;;2.20;;
51374;SDS011;37465;52.738;4.752;2022-09-09T11:34:36;4.20;;;2.30;;
51374;SDS011;37465;52.738;4.752;2022-09-09T11:37:16;4.50;;;2.33;;
51374;SDS011;37465;52.738;4.752;2022-09-09T11:39:52;5.28;;;2.58;;
51374;SDS011;37465;52.738;4.752;2022-09-09T11:42:36;5.68;;;2.30;;
51374;SDS011;37465;52.738;4.752;2022-09-09T11:45:10;5.20;;;2.30;;
51374;SDS011;37465;52.738;4.752;2022-09-09T11:47:51;6.50;;;2.22;;
51374;SDS011;37465;52.738;4.752;2022-09-09T11:50:28;3.45;;;1.80;;
51374;SDS011;37465;52.738;4.752;2022-09-09T11:53:05;4.15;;;1.90;;
51374;SDS011;37465;52.738;4.752;2022-09-09T11:55:42;4.07;;;2.10;;
51374;SDS011;37465;52.738;4.752;2022-09-09T11:58:15;4.47;;;2.03;;
51374;SDS011;37465;52.738;4.752;2022-09-09T12:00:44;4.90;;;1.80;;
51374;SDS011;37465;52.738;4.752;2022-09-09T12:06:10;3.78;;;1.60;;
51374;SDS011;37465;52.738;4.752;2022-09-09T12:08:41;3.47;;;1.73;;
51374;SDS011;37465;52.738;4.752;2022-09-09T12:11:11;3.40;;;1.67;;
51374;SDS011;37465;52.738;4.752;2022-09-09T12:13:39;4.15;;;1.67;;
51374;SDS011;37465;52.738;4.752;2022-09-09T12:19:06;4.57;;;1.90;;
51374;SDS011;37465;52.738;4.752;2022-09-09T12:21:36;4.30;;;2.10;;
51374;SDS011;37465;52.738;4.752;2022-09-09T12:24:09;5.60;;;2.77;;
51374;SDS011;37465;52.738;4.752;2022-09-09T12:26:37;5.57;;;2.97;;
51374;SDS011;37465;52.738;4.752;2022-09-09T12:29:11;5.30;;;3.28;;
51374;SDS011;37465;52.738;4.752;2022-09-09T12:31:46;6.78;;;3.78;;
51374;SDS011;37465;52.738;4.752;2022-09-09T12:34:18;6.22;;;3.30;;
51374;SDS011;37465;52.738;4.752;2022-09-09T12:36:53;4.17;;;3.13;;
51374;SDS011;37465;52.738;4.752;2022-09-09T12:39:32;5.67;;;2.87;;
51374;SDS011;37465;52.738;4.752;2022-09-09T12:42:15;5.57;;;2.42;;
51374;SDS011;37465;52.738;4.752;2022-09-09T12:44:50;4.63;;;2.20;;
51374;SDS011;37465;52.738;4.752;2022-09-09T12:47:18;3.97;;;2.10;;
51374;SDS011;37465;52.738;4.752;2022-09-09T12:49:51;3.22;;;1.73;;
51374;SDS011;37465;52.738;4.752;2022-09-09T12:52:22;4.35;;;1.73;;
51374;SDS011;37465;52.738;4.752;2022-09-09T12:54:56;3.10;;;1.90;;
51374;SDS011;37465;52.738;4.752;2022-09-09T12:57:24;3.58;;;1.88;;
51374;SDS011;37465;52.738;4.752;2022-09-09T13:00:02;4.50;;;1.87;;
51374;SDS011;37465;52.738;4.752;2022-09-09T13:02:36;2.78;;;1.52;;
51374;SDS011;37465;52.738;4.752;2022-09-09T13:05:14;2.63;;;1.30;;
51374;SDS011;37465;52.738;4.752;2022-09-09T13:07:44;3.43;;;1.43;;
51374;SDS011;37465;52.738;4.752;2022-09-09T13:10:12;2.88;;;1.40;;
51374;SDS011;37465;52.738;4.752;2022-09-09T13:12:55;3.13;;;1.70;;
51374;SDS011;37465;52.738;4.752;2022-09-09T13:15:24;3.20;;;1.50;;
51374;SDS011;37465;52.738;4.752;2022-09-09T13:17:54;3.58;;;1.42;;
51374;SDS011;37465;52.738;4.752;2022-09-09T13:20:22;3.90;;;1.70;;
51374;SDS011;37465;52.738;4.752;2022-09-09T13:22:52;3.30;;;1.50;;
51374;SDS011;37465;52.738;4.752;2022-09-09T13:25:22;3.92;;;1.58;;
51374;SDS011;37465;52.738;4.752;2022-09-09T13:27:55;2.90;;;1.52;;
51374;SDS011;37465;52.738;4.752;2022-09-09T13:30:25;2.78;;;1.30;;
51374;SDS011;37465;52.738;4.752;2022-09-09T13:33:02;2.77;;;1.47;;
51374;SDS011;37465;52.738;4.752;2022-09-09T13:35:31;2.63;;;1.10;;
51374;SDS011;37465;52.738;4.752;2022-09-09T13:38:05;2.83;;;0.60;;
51374;SDS011;37465;52.738;4.752;2022-09-09T13:40:34;2.28;;;0.90;;
51374;SDS011;37465;52.738;4.752;2022-09-09T13:43:03;1.50;;;0.60;;
51374;SDS011;37465;52.738;4.752;2022-09-09T13:45:31;1.80;;;0.70;;
51374;SDS011;37465;52.738;4.752;2022-09-09T13:48:08;2.00;;;0.75;;
51374;SDS011;37465;52.738;4.752;2022-09-09T13:50:36;2.00;;;0.80;;
51374;SDS011;37465;52.738;4.752;2022-09-09T13:53:07;2.10;;;0.80;;
51374;SDS011;37465;52.738;4.752;2022-09-09T13:55:35;2.13;;;0.70;;
51374;SDS011;37465;52.738;4.752;2022-09-09T13:58:03;2.07;;;0.70;;
51374;SDS011;37465;52.738;4.752;2022-09-09T14:00:32;1.70;;;0.80;;
51374;SDS011;37465;52.738;4.752;2022-09-09T14:03:00;2.75;;;0.70;;
51374;SDS011;37465;52.738;4.752;2022-09-09T14:05:29;1.58;;;0.73;;
51374;SDS011;37465;52.738;4.752;2022-09-09T14:07:57;2.55;;;0.80;;
51374;SDS011;37465;52.738;4.752;2022-09-09T14:10:27;2.47;;;0.98;;
51374;SDS011;37465;52.738;4.752;2022-09-09T14:12:55;3.57;;;1.40;;
51374;SDS011;37465;52.738;4.752;2022-09-09T14:15:23;3.03;;;1.10;;
51374;SDS011;37465;52.738;4.752;2022-09-09T14:17:50;2.73;;;1.20;;
51374;SDS011;37465;52.738;4.752;2022-09-09T14:20:18;2.40;;;1.17;;
51374;SDS011;37465;52.738;4.752;2022-09-09T14:22:45;2.87;;;1.30;;
51374;SDS011;37465;52.738;4.752;2022-09-09T14:25:13;3.13;;;1.30;;
51374;SDS011;37465;52.738;4.752;2022-09-09T14:27:42;2.53;;;1.27;;
51374;SDS011;37465;52.738;4.752;2022-09-09T14:30:11;3.53;;;1.53;;
51374;SDS011;37465;52.738;4.752;2022-09-09T14:32:39;3.60;;;1.80;;
51374;SDS011;37465;52.738;4.752;2022-09-09T14:35:06;3.85;;;2.03;;
51374;SDS011;37465;52.738;4.752;2022-09-09T14:37:35;3.17;;;2.30;;
51374;SDS011;37465;52.738;4.752;2022-09-09T14:40:02;4.28;;;2.80;;
51374;SDS011;37465;52.738;4.752;2022-09-09T14:42:30;4.43;;;3.00;;
51374;SDS011;37465;52.738;4.752;2022-09-09T14:44:59;4.13;;;3.60;;
51374;SDS011;37465;52.738;4.752;2022-09-09T14:47:27;4.72;;;4.10;;
51374;SDS011;37465;52.738;4.752;2022-09-09T14:49:55;5.80;;;4.45;;
51374;SDS011;37465;52.738;4.752;2022-09-09T14:52:22;7.70;;;4.67;;
51374;SDS011;37465;52.738;4.752;2022-09-09T14:54:51;5.43;;;4.47;;
51374;SDS011;37465;52.738;4.752;2022-09-09T14:57:19;5.43;;;4.82;;
51374;SDS011;37465;52.738;4.752;2022-09-09T14:59:46;5.40;;;4.25;;
51374;SDS011;37465;52.738;4.752;2022-09-09T15:02:17;5.15;;;4.60;;
51374;SDS011;37465;52.738;4.752;2022-09-09T15:04:45;5.25;;;3.97;;
51374;SDS011;37465;52.738;4.752;2022-09-09T15:07:13;4.97;;;3.80;;
51374;SDS011;37465;52.738;4.752;2022-09-09T15:09:40;5.55;;;3.75;;